createdAt,value
2018-11-13T00:00:44.201Z,15.00
2018-11-13T00:03:12.911Z,14.90
2018-11-13T00:05:41.763Z,15.10
2018-11-13T00:08:10.206Z,15.20
2018-11-13T00:10:39.168Z,15.10
2018-11-13T00:13:07.923Z,15.00
2018-11-13T00:15:36.844Z,15.00
2018-11-13T00:18:05.968Z,15.10
2018-11-13T00:20:34.718Z,15.10
2018-11-13T00:23:03.369Z,15.10
2018-11-13T00:25:32.126Z,15.20
2018-11-13T00:28:00.864Z,15.10
2018-11-13T00:30:29.627Z,15.10
2018-11-13T00:32:58.411Z,14.90
2018-11-13T00:35:27.085Z,14.90
2018-11-13T00:37:55.538Z,14.90
2018-11-13T00:40:24.277Z,14.90
2018-11-13T00:42:52.996Z,14.70
2018-11-13T00:45:21.772Z,14.80
2018-11-13T00:47:50.369Z,14.90
2018-11-13T00:50:20.203Z,15.00
2018-11-13T00:52:49.118Z,15.10
2018-11-13T00:55:17.762Z,15.10
2018-11-13T00:57:46.492Z,15.10
2018-11-13T01:00:16.984Z,15.10
2018-11-13T01:02:45.804Z,15.00
2018-11-13T01:05:15.775Z,15.00
2018-11-13T01:07:45.669Z,14.90
2018-11-13T01:10:15.319Z,15.00
2018-11-13T01:12:44.944Z,14.90
2018-11-13T01:15:14.887Z,14.90
2018-11-13T01:17:44.492Z,14.90
2018-11-13T01:20:13.886Z,14.90
2018-11-13T01:22:42.707Z,15.00
2018-11-13T01:25:12.536Z,14.80
2018-11-13T01:27:41.665Z,14.90
2018-11-13T01:30:11.616Z,14.80
2018-11-13T01:32:41.141Z,14.80
2018-11-13T01:35:11.919Z,14.70
2018-11-13T01:37:40.812Z,14.60
2018-11-13T01:40:10.994Z,14.60
2018-11-13T01:42:40.289Z,14.50
2018-11-13T01:45:10.752Z,14.50
2018-11-13T01:47:39.531Z,14.50
2018-11-13T01:50:08.780Z,14.40
2018-11-13T01:52:37.600Z,14.50
2018-11-13T01:55:08.087Z,14.50
2018-11-13T01:57:37.110Z,14.50
2018-11-13T02:00:13.873Z,14.50
2018-11-13T02:02:43.120Z,14.50
2018-11-13T02:05:11.840Z,14.50
2018-11-13T02:07:40.736Z,14.40
2018-11-13T02:10:09.229Z,14.40
2018-11-13T02:12:38.030Z,14.40
2018-11-13T02:15:07.458Z,14.40
2018-11-13T02:17:36.195Z,14.40
2018-11-13T02:20:06.266Z,14.30
2018-11-13T02:22:35.046Z,14.40
2018-11-13T02:25:03.895Z,14.30
2018-11-13T02:27:32.688Z,14.20
2018-11-13T02:30:01.309Z,14.20
2018-11-13T02:32:30.138Z,14.10
2018-11-13T02:34:58.854Z,14.20
2018-11-13T02:37:27.651Z,14.20
2018-11-13T02:39:56.454Z,14.20
2018-11-13T02:42:25.004Z,14.20
2018-11-13T02:44:53.687Z,14.30
2018-11-13T02:47:23.118Z,14.20
2018-11-13T02:49:52.136Z,14.20
2018-11-13T02:52:20.617Z,14.30
2018-11-13T02:54:49.465Z,14.20
2018-11-13T02:57:18.224Z,14.20
2018-11-13T02:59:47.029Z,14.20
2018-11-13T03:02:15.401Z,14.10
2018-11-13T03:04:44.296Z,14.00
2018-11-13T03:07:13.226Z,14.00
2018-11-13T03:09:41.923Z,13.90
2018-11-13T03:12:10.718Z,13.90
2018-11-13T03:14:39.356Z,14.00
2018-11-13T03:17:08.210Z,13.90
2018-11-13T03:19:36.909Z,14.00
2018-11-13T03:22:05.449Z,14.00
2018-11-13T03:24:34.242Z,14.00
2018-11-13T03:27:03.032Z,14.10
2018-11-13T03:29:31.784Z,14.20
2018-11-13T03:32:00.400Z,14.00
2018-11-13T03:34:29.209Z,14.20
2018-11-13T03:36:57.989Z,14.20
2018-11-13T03:39:26.458Z,14.30
2018-11-13T03:41:55.305Z,14.40
2018-11-13T03:44:24.009Z,14.40
2018-11-13T03:46:52.541Z,14.50
2018-11-13T03:49:21.298Z,14.40
2018-11-13T03:51:49.809Z,14.60
2018-11-13T03:54:18.640Z,14.50
2018-11-13T03:56:47.466Z,14.60
2018-11-13T03:59:16.188Z,14.60
2018-11-13T04:01:44.995Z,14.70
2018-11-13T04:04:14.832Z,14.90
2018-11-13T04:06:44.355Z,14.80
2018-11-13T04:09:14.331Z,14.60
2018-11-13T04:11:43.052Z,14.70
2018-11-13T04:14:11.745Z,14.70
2018-11-13T04:16:40.517Z,14.60
2018-11-13T04:19:09.151Z,14.60
2018-11-13T04:21:38.202Z,14.70
2018-11-13T04:24:06.831Z,14.70
2018-11-13T04:26:35.740Z,14.70
2018-11-13T04:29:04.501Z,14.80
2018-11-13T04:31:33.478Z,14.80
2018-11-13T04:34:02.243Z,14.80
2018-11-13T04:36:31.090Z,14.90
2018-11-13T04:38:59.821Z,15.00
2018-11-13T04:41:28.542Z,15.00
2018-11-13T04:43:57.282Z,14.90
2018-11-13T04:46:25.897Z,14.60
2018-11-13T04:48:54.661Z,14.60
2018-11-13T04:51:23.374Z,14.60
2018-11-13T04:53:51.769Z,14.50
2018-11-13T04:56:20.519Z,14.60
2018-11-13T04:58:49.315Z,14.40
2018-11-13T05:01:18.101Z,14.40
2018-11-13T05:03:46.833Z,14.40
2018-11-13T05:06:15.676Z,14.40
2018-11-13T05:08:44.573Z,14.40
2018-11-13T05:11:13.422Z,14.40
2018-11-13T05:13:41.866Z,14.40
2018-11-13T05:16:10.400Z,14.40
2018-11-13T05:18:39.189Z,14.50
2018-11-13T05:21:07.807Z,14.60
2018-11-13T05:23:36.686Z,14.60
2018-11-13T05:26:05.556Z,14.50
2018-11-13T05:28:34.298Z,14.50
2018-11-13T05:31:02.947Z,14.70
2018-11-13T05:33:31.650Z,14.90
2018-11-13T05:36:00.378Z,14.50
2018-11-13T05:38:28.984Z,14.60
2018-11-13T05:40:57.669Z,14.70
2018-11-13T05:43:26.749Z,14.40
2018-11-13T05:45:55.774Z,14.10
2018-11-13T05:48:24.506Z,14.20
2018-11-13T05:50:53.329Z,14.30
2018-11-13T05:53:22.097Z,14.60
2018-11-13T05:55:50.928Z,14.70
2018-11-13T05:58:19.670Z,14.80
2018-11-13T06:00:48.497Z,14.80
2018-11-13T06:03:17.261Z,14.90
2018-11-13T06:05:45.837Z,15.00
2018-11-13T06:08:17.189Z,15.10
2018-11-13T06:10:46.639Z,14.90
2018-11-13T06:13:15.382Z,14.90
2018-11-13T06:15:44.077Z,14.90
2018-11-13T06:18:13.073Z,15.10
2018-11-13T06:20:41.833Z,15.10
2018-11-13T06:23:10.437Z,15.10
2018-11-13T06:25:39.311Z,15.20
2018-11-13T06:28:07.915Z,15.10
2018-11-13T06:30:36.604Z,15.10
2018-11-13T06:33:05.585Z,15.20
2018-11-13T06:35:34.289Z,15.20
2018-11-13T06:38:04.101Z,15.20
2018-11-13T06:40:32.774Z,15.20
2018-11-13T06:43:01.576Z,15.20
2018-11-13T06:45:30.397Z,15.20
2018-11-13T06:47:59.305Z,15.30
2018-11-13T06:50:28.264Z,15.20
2018-11-13T06:52:57.057Z,15.20
2018-11-13T06:55:28.817Z,15.30
2018-11-13T06:57:57.633Z,15.30
2018-11-13T07:00:26.390Z,15.20
2018-11-13T07:02:55.241Z,15.30
2018-11-13T07:05:23.725Z,15.50
2018-11-13T07:07:52.564Z,15.50
2018-11-13T07:10:22.577Z,15.50
2018-11-13T07:12:51.965Z,15.70
2018-11-13T07:15:21.924Z,15.60
2018-11-13T07:17:51.755Z,15.70
2018-11-13T07:20:21.715Z,15.90
2018-11-13T07:22:50.450Z,16.00
2018-11-13T07:25:19.484Z,15.90
2018-11-13T07:27:48.286Z,16.00
2018-11-13T07:30:17.869Z,15.80
2018-11-13T07:32:46.697Z,15.90
2018-11-13T07:35:16.542Z,16.00
2018-11-13T07:38:00.520Z,16.20
2018-11-13T07:40:29.045Z,16.30
2018-11-13T07:42:58.011Z,16.40
2018-11-13T07:45:26.475Z,16.40
2018-11-13T07:47:55.341Z,16.40
2018-11-13T07:50:24.067Z,16.50
2018-11-13T07:52:52.738Z,16.60
2018-11-13T07:55:21.491Z,16.70
2018-11-13T07:57:50.372Z,16.70
2018-11-13T08:00:22.046Z,16.60
2018-11-13T08:02:51.979Z,16.80
2018-11-13T08:05:20.582Z,16.80
2018-11-13T08:07:49.388Z,16.90
2018-11-13T08:10:18.362Z,16.80
2018-11-13T08:12:47.239Z,16.90
2018-11-13T08:15:17.157Z,17.10
2018-11-13T08:17:46.133Z,17.30
2018-11-13T08:20:15.558Z,17.30
2018-11-13T08:22:44.538Z,17.30
2018-11-13T08:25:13.244Z,17.10
2018-11-13T08:27:42.620Z,16.80
2018-11-13T08:30:14.513Z,16.80
2018-11-13T08:32:43.901Z,16.60
2018-11-13T08:35:12.367Z,16.50
2018-11-13T08:37:47.680Z,16.60
2018-11-13T08:40:17.665Z,16.60
2018-11-13T08:42:46.715Z,17.30
2018-11-13T08:45:16.021Z,19.30
2018-11-13T08:47:44.662Z,20.60
2018-11-13T08:50:14.030Z,21.40
2018-11-13T08:52:43.410Z,21.60
2018-11-13T08:55:12.306Z,19.80
2018-11-13T08:57:40.975Z,19.50
2018-11-13T09:00:11.484Z,21.50
2018-11-13T09:02:40.676Z,22.70
2018-11-13T09:05:09.698Z,23.60
2018-11-13T09:07:38.845Z,23.30
2018-11-13T09:10:09.149Z,24.20
2018-11-13T09:12:38.076Z,24.70
2018-11-13T09:15:08.577Z,25.60
2018-11-13T09:17:37.522Z,25.50
2018-11-13T09:20:07.626Z,26.40
2018-11-13T09:22:36.438Z,26.50
2018-11-13T09:25:06.183Z,26.40
2018-11-13T09:27:34.781Z,26.80
2018-11-13T09:30:03.515Z,27.50
2018-11-13T09:32:32.133Z,27.50
2018-11-13T09:35:00.768Z,28.00
2018-11-13T09:37:29.625Z,28.60
2018-11-13T09:39:58.568Z,28.70
2018-11-13T09:42:27.248Z,28.90
2018-11-13T09:44:56.081Z,29.20
2018-11-13T09:47:24.843Z,29.20
2018-11-13T09:49:53.630Z,28.90
2018-11-13T09:52:22.272Z,29.80
2018-11-13T09:54:51.097Z,30.20
2018-11-13T09:57:19.751Z,30.60
2018-11-13T09:59:48.213Z,29.30
2018-11-13T10:02:17.486Z,29.50
2018-11-13T10:04:46.427Z,29.40
2018-11-13T10:07:14.686Z,29.80
2018-11-13T10:09:43.513Z,30.00
2018-11-13T10:12:12.029Z,30.40
2018-11-13T10:14:41.375Z,30.20
2018-11-13T10:17:10.133Z,29.90
2018-11-13T10:19:38.970Z,30.00
2018-11-13T10:22:07.413Z,30.60
2018-11-13T10:24:36.224Z,30.80
2018-11-13T10:27:05.373Z,30.60
2018-11-13T10:29:34.394Z,30.90
2018-11-13T10:32:03.084Z,31.30
2018-11-13T10:34:31.779Z,31.20
2018-11-13T10:37:00.579Z,31.40
2018-11-13T10:39:29.340Z,31.30
2018-11-13T10:41:58.106Z,31.30
2018-11-13T10:44:26.876Z,31.10
2018-11-13T10:46:55.729Z,31.00
2018-11-13T10:49:24.151Z,31.20
2018-11-13T10:51:52.592Z,31.60
2018-11-13T10:54:21.445Z,31.40
2018-11-13T10:56:49.844Z,31.40
2018-11-13T10:59:18.701Z,31.30
2018-11-13T11:01:52.900Z,31.30
2018-11-13T11:04:27.192Z,31.40
2018-11-13T11:06:55.956Z,31.40
2018-11-13T11:09:24.565Z,31.30
2018-11-13T11:11:53.294Z,31.30
2018-11-13T11:14:22.067Z,30.80
2018-11-13T11:16:51.117Z,31.20
2018-11-13T11:19:19.705Z,31.50
2018-11-13T11:21:48.145Z,32.10
2018-11-13T11:24:17.117Z,31.50
2018-11-13T11:26:45.690Z,31.40
2018-11-13T11:29:14.186Z,31.00
2018-11-13T11:31:42.841Z,31.20
2018-11-13T11:34:11.773Z,31.30
2018-11-13T11:36:40.841Z,31.20
2018-11-13T11:39:11.005Z,31.60
2018-11-13T11:41:39.688Z,30.80
2018-11-13T11:44:09.107Z,30.70
2018-11-13T11:46:38.292Z,30.70
2018-11-13T11:49:07.109Z,30.20
2018-11-13T11:51:36.032Z,30.30
2018-11-13T11:54:05.829Z,30.60
2018-11-13T11:56:34.529Z,30.20
2018-11-13T11:59:03.309Z,30.00
2018-11-13T12:01:31.938Z,29.90
2018-11-13T12:04:00.739Z,29.70
2018-11-13T12:06:29.616Z,29.80
2018-11-13T12:08:58.349Z,29.60
2018-11-13T12:11:27.004Z,29.80
2018-11-13T12:13:55.821Z,29.80
2018-11-13T12:16:24.314Z,30.00
2018-11-13T12:18:53.054Z,29.90
2018-11-13T12:21:21.784Z,29.70
2018-11-13T12:23:50.222Z,29.30
2018-11-13T12:26:19.084Z,29.70
2018-11-13T12:28:47.841Z,29.90
2018-11-13T12:31:16.276Z,30.10
2018-11-13T12:33:44.912Z,29.90
2018-11-13T12:36:13.758Z,29.70
2018-11-13T12:38:45.369Z,28.40
2018-11-13T12:41:14.185Z,28.80
2018-11-13T12:43:42.864Z,29.30
2018-11-13T12:46:11.549Z,29.70
2018-11-13T12:48:40.505Z,29.30
2018-11-13T12:51:09.328Z,29.50
2018-11-13T12:53:38.028Z,29.00
2018-11-13T12:56:06.701Z,29.00
2018-11-13T12:58:35.341Z,29.20
2018-11-13T13:01:04.000Z,28.80
2018-11-13T13:03:32.832Z,28.80
2018-11-13T13:06:01.602Z,28.90
2018-11-13T13:08:30.469Z,28.60
2018-11-13T13:10:59.338Z,28.40
2018-11-13T13:13:27.739Z,28.20
2018-11-13T13:15:56.724Z,28.10
2018-11-13T13:18:25.345Z,28.00
2018-11-13T13:20:54.153Z,28.00
2018-11-13T13:23:22.838Z,28.20
2018-11-13T13:25:51.611Z,28.10
2018-11-13T13:28:20.391Z,27.90
2018-11-13T13:30:49.429Z,27.40
2018-11-13T13:33:18.066Z,27.20
2018-11-13T13:36:04.772Z,27.10
2018-11-13T13:38:34.794Z,27.10
2018-11-13T13:41:04.273Z,26.80
2018-11-13T13:43:33.474Z,26.60
2018-11-13T13:46:02.610Z,26.50
2018-11-13T13:48:31.469Z,26.00
2018-11-13T13:51:00.490Z,26.00
2018-11-13T13:53:29.269Z,25.80
2018-11-13T13:55:58.184Z,25.50
2018-11-13T13:58:27.067Z,25.40
2018-11-13T14:00:56.791Z,25.10
2018-11-13T14:03:25.643Z,24.80
2018-11-13T14:05:54.499Z,24.70
2018-11-13T14:08:23.272Z,24.20
2018-11-13T14:10:52.218Z,24.30
2018-11-13T14:13:21.090Z,24.30
2018-11-13T14:15:50.034Z,24.10
2018-11-13T14:18:18.791Z,24.00
2018-11-13T14:20:47.363Z,23.90
2018-11-13T14:23:16.282Z,23.80
2018-11-13T14:25:45.177Z,23.70
2018-11-13T14:28:14.064Z,23.50
2018-11-13T14:30:42.834Z,23.40
2018-11-13T14:33:12.332Z,23.40
2018-11-13T14:35:41.248Z,23.30
2018-11-13T14:38:10.208Z,23.10
2018-11-13T14:40:40.214Z,23.00
2018-11-13T14:43:09.215Z,22.80
2018-11-13T14:45:37.930Z,22.60
2018-11-13T14:48:07.444Z,22.50
2018-11-13T14:50:36.852Z,22.20
2018-11-13T14:53:06.042Z,22.10
2018-11-13T14:55:36.112Z,22.00
2018-11-13T14:58:05.694Z,21.90
2018-11-13T15:00:35.481Z,21.60
2018-11-13T15:03:05.187Z,21.60
2018-11-13T15:05:34.461Z,21.50
2018-11-13T15:08:04.694Z,21.30
2018-11-13T15:10:35.775Z,21.20
2018-11-13T15:13:04.481Z,21.10
2018-11-13T15:15:33.032Z,21.00
2018-11-13T15:18:01.893Z,20.80
2018-11-13T15:20:30.589Z,20.70
2018-11-13T15:22:59.374Z,20.50
2018-11-13T15:25:27.895Z,20.60
2018-11-13T15:27:56.576Z,20.40
2018-11-13T15:30:26.744Z,20.30
2018-11-13T15:32:56.734Z,20.30
2018-11-13T15:35:25.434Z,20.20
2018-11-13T15:37:54.192Z,20.20
2018-11-13T15:40:26.289Z,20.00
2018-11-13T15:42:55.097Z,19.80
2018-11-13T15:45:23.485Z,19.80
2018-11-13T15:47:53.085Z,19.80
2018-11-13T15:50:24.171Z,19.50
2018-11-13T15:52:52.960Z,19.60
2018-11-13T15:55:21.676Z,19.70
2018-11-13T15:57:50.727Z,19.60
2018-11-13T16:00:21.747Z,19.50
2018-11-13T16:02:50.691Z,19.50
2018-11-13T16:05:26.784Z,19.50
2018-11-13T16:07:56.510Z,19.50
2018-11-13T16:10:25.570Z,19.40
2018-11-13T16:12:54.576Z,19.30
2018-11-13T16:15:24.147Z,19.30
2018-11-13T16:17:53.630Z,19.40
2018-11-13T16:20:22.429Z,19.30
2018-11-13T16:22:51.158Z,19.20
2018-11-13T16:25:19.951Z,19.20
2018-11-13T16:27:48.713Z,19.20
2018-11-13T16:30:20.027Z,19.10
2018-11-13T16:32:49.367Z,19.10
2018-11-13T16:35:19.075Z,19.10
2018-11-13T16:37:48.466Z,19.10
2018-11-13T16:40:20.864Z,19.00
2018-11-13T16:42:49.630Z,19.00
2018-11-13T16:45:19.572Z,19.00
2018-11-13T16:47:48.175Z,19.00
2018-11-13T16:50:21.375Z,18.80
2018-11-13T16:52:50.235Z,18.90
2018-11-13T16:55:24.405Z,18.80
2018-11-13T16:57:53.590Z,18.80
2018-11-13T17:00:23.097Z,18.80
2018-11-13T17:02:51.920Z,18.70
2018-11-13T17:05:21.480Z,18.70
2018-11-13T17:07:50.243Z,18.70
2018-11-13T17:10:20.213Z,18.60
2018-11-13T17:12:49.334Z,18.50
2018-11-13T17:15:20.084Z,18.50
2018-11-13T17:17:49.783Z,18.40
2018-11-13T17:20:18.681Z,18.40
2018-11-13T17:22:48.257Z,18.20
2018-11-13T17:25:22.235Z,18.10
2018-11-13T17:27:52.917Z,18.20
2018-11-13T17:30:26.377Z,17.90
2018-11-13T17:32:56.107Z,18.00
2018-11-13T17:35:25.637Z,18.00
2018-11-13T17:37:55.052Z,17.80
2018-11-13T17:40:24.915Z,17.70
2018-11-13T17:42:54.865Z,17.60
2018-11-13T17:45:27.205Z,17.60
2018-11-13T17:47:55.977Z,17.40
2018-11-13T17:50:27.042Z,17.40
2018-11-13T17:52:55.954Z,17.30
2018-11-13T17:55:25.337Z,17.20
2018-11-13T17:57:55.495Z,17.10
2018-11-13T18:07:15.193Z,17.10
2018-11-13T18:09:43.931Z,16.90
2018-11-13T18:12:12.861Z,16.80
2018-11-13T18:14:41.552Z,16.70
2018-11-13T18:17:10.338Z,16.50
2018-11-13T18:19:39.220Z,16.50
2018-11-13T18:22:08.314Z,16.60
2018-11-13T18:24:36.843Z,16.50
2018-11-13T18:27:05.755Z,16.30
2018-11-13T18:29:34.523Z,16.10
2018-11-13T18:32:03.154Z,16.20
2018-11-13T18:34:31.941Z,16.20
2018-11-13T18:37:00.689Z,16.30
2018-11-13T18:39:29.366Z,16.30
2018-11-13T18:41:58.170Z,16.20
2018-11-13T18:44:27.295Z,16.20
2018-11-13T18:46:56.061Z,16.20
2018-11-13T18:49:24.885Z,16.00
2018-11-13T18:51:53.522Z,16.00
2018-11-13T18:54:22.242Z,16.00
2018-11-13T18:56:51.125Z,15.80
2018-11-13T18:59:19.980Z,15.80
2018-11-13T19:01:48.805Z,15.60
2018-11-13T19:04:17.570Z,15.50
2018-11-13T19:06:46.273Z,15.50
2018-11-13T19:09:15.061Z,15.40
2018-11-13T19:11:43.999Z,15.50
2018-11-13T19:14:12.760Z,15.50
2018-11-13T19:16:41.654Z,15.60
2018-11-13T19:19:10.384Z,15.50
2018-11-13T19:21:39.200Z,15.40
2018-11-13T19:24:07.928Z,15.50
2018-11-13T19:26:36.599Z,15.30
2018-11-13T19:29:05.422Z,15.40
2018-11-13T19:31:34.267Z,15.40
2018-11-13T19:34:03.045Z,15.50
2018-11-13T19:36:32.003Z,15.40
2018-11-13T19:39:01.099Z,15.40
2018-11-13T19:41:30.020Z,15.40
2018-11-13T19:43:59.373Z,15.40
2018-11-13T19:46:28.948Z,15.20
2018-11-13T19:48:58.444Z,15.20
2018-11-13T19:51:28.222Z,15.10
2018-11-13T19:53:58.070Z,15.00
2018-11-13T19:56:27.397Z,15.10
2018-11-13T19:58:56.147Z,15.00
2018-11-13T20:01:25.185Z,15.10
2018-11-13T20:03:53.981Z,15.00
2018-11-13T20:06:22.810Z,15.10
2018-11-13T20:08:51.566Z,15.10
2018-11-13T20:11:20.359Z,14.90
2018-11-13T20:13:49.352Z,15.00
2018-11-13T20:16:17.928Z,15.00
2018-11-13T20:18:46.719Z,14.90
2018-11-13T20:21:15.659Z,14.90
2018-11-13T20:23:44.393Z,14.80
2018-11-13T20:26:13.241Z,14.70
2018-11-13T20:28:41.919Z,14.60
2018-11-13T20:31:10.836Z,14.70
2018-11-13T20:33:39.535Z,14.70
2018-11-13T20:36:08.282Z,14.70
2018-11-13T20:38:37.136Z,14.70
2018-11-13T20:41:06.159Z,14.70
2018-11-13T20:43:35.317Z,14.70
2018-11-13T20:46:04.161Z,14.60
2018-11-13T20:48:32.917Z,14.60
2018-11-13T20:51:01.782Z,14.70
2018-11-13T20:53:30.469Z,14.70
2018-11-13T20:55:59.401Z,14.60
2018-11-13T20:58:28.568Z,14.70
2018-11-13T21:00:57.936Z,14.70
2018-11-13T21:03:27.826Z,14.80
2018-11-13T21:05:58.206Z,14.70
2018-11-13T21:08:28.262Z,14.70
2018-11-13T21:10:59.310Z,14.50
2018-11-13T21:13:29.206Z,14.40
2018-11-13T21:15:59.527Z,14.50
2018-11-13T21:18:29.953Z,14.50
2018-11-13T21:21:00.339Z,14.50
2018-11-13T21:23:30.899Z,14.50
2018-11-13T21:26:01.545Z,14.40
2018-11-13T21:28:31.893Z,14.50
2018-11-13T21:31:00.741Z,14.50
2018-11-13T21:33:29.529Z,14.30
2018-11-13T21:35:58.425Z,14.50
2018-11-13T21:38:27.232Z,14.50
2018-11-13T21:40:56.068Z,14.50
2018-11-13T21:43:24.720Z,14.50
2018-11-13T21:45:53.432Z,14.60
2018-11-13T21:48:22.129Z,14.60
2018-11-13T21:50:51.044Z,14.60
2018-11-13T21:53:19.777Z,14.50
2018-11-13T21:55:48.509Z,14.50
2018-11-13T21:58:17.308Z,14.40
2018-11-13T22:00:48.254Z,14.20
2018-11-13T22:03:17.438Z,14.20
2018-11-13T22:05:46.438Z,14.10
2018-11-13T22:08:15.161Z,14.00
2018-11-13T22:10:43.876Z,14.00
2018-11-13T22:13:12.669Z,14.10
2018-11-13T22:15:41.463Z,14.10
2018-11-13T22:18:10.327Z,14.20
2018-11-13T22:20:43.620Z,14.20
2018-11-13T22:23:07.658Z,14.20
2018-11-13T22:25:36.405Z,14.10
2018-11-13T22:28:05.143Z,14.30
2018-11-13T22:30:34.172Z,14.20
2018-11-13T22:33:02.876Z,14.10
2018-11-13T22:35:31.864Z,14.10
2018-11-13T22:38:00.775Z,14.00
2018-11-13T22:40:29.454Z,13.90
2018-11-13T22:42:59.161Z,13.90
2018-11-13T22:45:28.929Z,13.80
2018-11-13T22:47:58.070Z,13.70
2018-11-13T22:50:30.102Z,13.60
2018-11-13T22:52:58.901Z,13.70
2018-11-13T22:55:27.525Z,13.60
2018-11-13T22:57:57.229Z,13.60
2018-11-13T23:00:36.474Z,13.60
2018-11-13T23:03:07.554Z,13.70
2018-11-13T23:05:36.294Z,13.70
2018-11-13T23:08:05.906Z,13.90
2018-11-13T23:10:34.690Z,13.90
2018-11-13T23:13:03.969Z,13.90
2018-11-13T23:15:32.555Z,14.00
2018-11-13T23:18:01.309Z,14.10
2018-11-13T23:20:30.248Z,14.10
2018-11-13T23:22:59.086Z,14.10
2018-11-13T23:25:27.765Z,14.10
2018-11-13T23:27:56.669Z,14.00
2018-11-13T23:30:26.554Z,14.10
2018-11-13T23:32:56.191Z,14.10
2018-11-13T23:35:24.898Z,14.20
2018-11-13T23:37:55.938Z,14.30
2018-11-13T23:40:25.862Z,14.20
2018-11-13T23:42:54.631Z,14.30
2018-11-13T23:45:24.349Z,14.30
2018-11-13T23:47:53.446Z,14.30
2018-11-13T23:50:22.437Z,14.30
2018-11-13T23:52:51.722Z,14.30
2018-11-13T23:55:20.488Z,14.30
2018-11-13T23:57:49.221Z,14.30
